Time;durP1;ratioP1;P1;durP2;ratioP2;P2;SDS_P1;SDS_P2;PMS_P1;PMS_P2;Temp;Humidity;BMP_temperature;BMP_pressure;BME280_temperature;BME280_humidity;BME280_pressure;Samples;Min_cycle;Max_cycle;Signal;HPM_P1;HPM_P2
2021/04/30 00:00:39;;;;;;;8.55;7.75;;;;;;;9.88;50.42;99699.06;10251374;28;20071;-58
2021/04/30 00:05:40;;;;;;;9.82;8.85;;;;;;;9.91;52.16;99704.13;10261169;28;20062;-57
2021/04/30 00:10:41;;;;;;;9.23;8.32;;;;;;;9.89;50.43;99700.78;10294238;23;20049;-72
2021/04/30 00:15:45;;;;;;;9.38;8.45;;;;;;;9.88;52.61;99693.75;10339947;28;20049;-71
2021/04/30 00:20:52;;;;;;;9.75;8.85;;;;;;;10.05;50.74;99694.09;10314527;28;20136;-72
2021/04/30 00:25:58;;;;;;;9.38;8.48;;;;;;;9.85;51.13;99694.03;10301774;28;20101;-70
2021/04/30 00:31:00;;;;;;;11.20;10.10;;;;;;;9.84;51.92;99692.34;10306045;28;20073;-75
2021/04/30 00:36:02;;;;;;;11.65;10.55;;;;;;;9.83;53.00;99700.44;10279830;28;20053;-71
2021/04/30 00:41:04;;;;;;;12.48;11.23;;;;;;;9.43;54.72;99688.75;10305547;28;20057;-71
2021/04/30 00:46:05;;;;;;;12.35;11.15;;;;;;;9.61;52.48;99698.78;10290634;28;20046;-72
2021/04/30 00:51:06;;;;;;;12.60;11.43;;;;;;;9.71;52.18;99710.31;10295374;28;20043;-70
2021/04/30 00:56:07;;;;;;;14.00;12.27;;;;;;;9.68;51.81;99697.28;10310559;28;20042;-71
2021/04/30 01:01:09;;;;;;;11.85;10.65;;;;;;;9.58;52.32;99691.94;10308106;28;20054;-70
2021/04/30 01:06:10;;;;;;;13.25;12.00;;;;;;;9.61;53.27;99704.09;10305830;28;20798;-70
2021/04/30 01:11:12;;;;;;;12.77;11.48;;;;;;;9.55;52.46;99708.97;10319257;28;20069;-70
2021/04/30 01:16:13;;;;;;;12.60;11.38;;;;;;;9.43;53.00;99707.34;10317239;28;20081;-71
2021/04/30 01:21:16;;;;;;;13.90;12.65;;;;;;;9.59;52.95;99714.00;10312404;28;20054;-71
2021/04/30 01:26:18;;;;;;;14.02;12.77;;;;;;;9.62;53.64;99705.78;10312119;28;20116;-71
2021/04/30 01:31:19;;;;;;;13.13;11.93;;;;;;;9.59;52.23;99719.34;10307718;28;20472;-72
2021/04/30 01:36:20;;;;;;;13.27;11.98;;;;;;;9.52;52.02;99727.81;10309483;28;20046;-71
2021/04/30 01:41:22;;;;;;;12.90;11.60;;;;;;;9.44;53.31;99732.94;10308127;28;20494;-71
2021/04/30 01:46:23;;;;;;;14.50;12.70;;;;;;;9.50;54.42;99735.09;10309937;28;20063;-70
2021/04/30 01:51:24;;;;;;;12.57;11.38;;;;;;;9.54;52.78;99736.50;10301980;28;20051;-71
2021/04/30 01:56:25;;;;;;;13.27;12.05;;;;;;;9.41;52.85;99742.97;10305548;28;20058;-70
2021/04/30 02:01:26;;;;;;;13.07;11.88;;;;;;;9.45;52.79;99745.25;10306107;28;20066;-71
2021/04/30 02:06:27;;;;;;;13.27;12.07;;;;;;;9.34;52.88;99732.03;10307579;28;20129;-72
2021/04/30 02:11:28;;;;;;;13.20;11.98;;;;;;;9.18;53.61;99730.63;10312524;28;20050;-70
2021/04/30 02:16:29;;;;;;;13.02;11.73;;;;;;;9.21;53.38;99742.81;10337271;28;20133;-74
2021/04/30 02:21:30;;;;;;;13.65;12.35;;;;;;;9.18;54.14;99748.41;10325585;28;20058;-71
2021/04/30 02:26:31;;;;;;;13.43;12.10;;;;;;;9.19;54.17;99750.09;10316433;28;20579;-71
2021/04/30 02:31:32;;;;;;;13.68;12.32;;;;;;;9.16;54.12;99753.84;10349364;28;20089;-71
2021/04/30 02:36:33;;;;;;;13.55;12.32;;;;;;;9.17;54.05;99754.66;10331263;28;20058;-70
2021/04/30 02:41:34;;;;;;;14.43;13.02;;;;;;;9.22;53.48;99759.59;10326026;28;20049;-71
2021/04/30 02:46:35;;;;;;;14.88;13.20;;;;;;;8.88;54.57;99741.16;10314856;28;20042;-70
2021/04/30 02:51:36;;;;;;;13.57;12.23;;;;;;;9.15;54.24;99753.97;10303370;28;20050;-71
2021/04/30 02:56:37;;;;;;;14.82;13.43;;;;;;;9.03;54.77;99755.81;10312975;28;20061;-70
2021/04/30 03:01:38;;;;;;;13.93;12.30;;;;;;;9.00;54.28;99772.00;10310951;28;20042;-71
2021/04/30 03:06:39;;;;;;;13.50;12.00;;;;;;;8.84;55.44;99757.31;10302971;28;20047;-71
2021/04/30 03:11:40;;;;;;;14.23;12.95;;;;;;;8.80;55.18;99766.50;10314489;28;20050;-72
2021/04/30 03:16:41;;;;;;;13.40;12.00;;;;;;;8.88;55.90;99755.25;10314444;28;20050;-71
2021/04/30 03:21:43;;;;;;;13.57;12.25;;;;;;;8.90;54.88;99741.84;10306944;28;20042;-72
2021/04/30 03:26:44;;;;;;;14.27;12.88;;;;;;;8.96;55.56;99736.91;10348372;28;20986;-71
2021/04/30 03:31:46;;;;;;;21.90;13.45;;;;;;;8.85;56.04;99735.09;10310527;28;20128;-71
2021/04/30 03:36:47;;;;;;;14.07;12.77;;;;;;;8.84;55.45;99741.41;10308053;28;20128;-69
2021/04/30 03:41:48;;;;;;;15.15;13.65;;;;;;;8.71;55.15;99750.44;10308179;28;20050;-70
2021/04/30 03:46:49;;;;;;;14.63;13.13;;;;;;;8.54;55.84;99757.13;10301844;28;20644;-70
2021/04/30 03:51:51;;;;;;;15.02;13.63;;;;;;;8.66;56.04;99756.13;10307954;28;20455;-70
2021/04/30 03:56:52;;;;;;;13.93;12.63;;;;;;;8.65;55.23;99752.66;10310075;28;20112;-69
2021/04/30 04:01:53;;;;;;;14.85;13.35;;;;;;;8.64;55.79;99747.47;10302680;28;20052;-70
2021/04/30 04:06:54;;;;;;;14.90;13.40;;;;;;;8.71;55.91;99751.31;10299752;28;20130;-72
2021/04/30 04:11:55;;;;;;;14.20;12.80;;;;;;;8.68;55.43;99767.50;10319209;28;20043;-74
2021/04/30 04:16:56;;;;;;;15.30;13.80;;;;;;;8.70;56.00;99778.81;10308024;28;20058;-70
2021/04/30 04:21:57;;;;;;;15.57;14.05;;;;;;;8.62;56.45;99789.22;10305776;28;20611;-71
2021/04/30 04:26:58;;;;;;;15.48;13.98;;;;;;;8.55;55.51;99782.69;10313849;28;20054;-70
2021/04/30 04:31:59;;;;;;;15.02;13.60;;;;;;;8.61;56.38;99784.84;10312874;28;20061;-71
2021/04/30 04:37:00;;;;;;;16.23;13.90;;;;;;;8.50;58.21;99788.38;10298014;28;20046;-72
2021/04/30 04:42:05;;;;;;;15.93;14.38;;;;;;;8.46;59.19;99784.25;10301000;28;20050;-71
2021/04/30 04:47:07;;;;;;;16.67;15.00;;;;;;;8.39;57.29;99799.81;10345765;28;20051;-72
2021/04/30 04:52:08;;;;;;;17.63;15.38;;;;;;;8.28;57.79;99781.22;10322175;28;20476;-71
2021/04/30 04:57:10;;;;;;;15.10;13.57;;;;;;;8.31;57.34;99786.28;10306863;28;20055;-71
2021/04/30 05:02:10;;;;;;;17.40;15.50;;;;;;;8.28;57.51;99783.88;10312389;28;20508;-73
2021/04/30 05:07:13;;;;;;;18.30;16.35;;;;;;;8.40;57.75;99809.41;10301877;28;20054;-71
2021/04/30 05:12:14;;;;;;;22.45;17.02;;;;;;;8.46;57.70;99810.78;10315556;28;20770;-72
2021/04/30 05:17:15;;;;;;;21.63;17.60;;;;;;;8.36;57.87;99820.41;10317935;28;20049;-72
2021/04/30 05:22:17;;;;;;;19.98;17.42;;;;;;;8.39;58.24;99830.75;10317930;28;20054;-72
2021/04/30 05:27:17;;;;;;;17.13;15.45;;;;;;;8.43;57.63;99822.44;10313573;28;20756;-71
2021/04/30 05:32:18;;;;;;;18.85;16.42;;;;;;;8.54;57.95;99829.63;10308067;28;20054;-71
2021/04/30 05:37:19;;;;;;;17.55;15.65;;;;;;;8.54;58.02;99836.72;10311011;28;20058;-72
2021/04/30 05:42:20;;;;;;;19.52;16.20;;;;;;;8.52;57.51;99841.31;10308605;28;20042;-70
2021/04/30 05:47:22;;;;;;;17.38;15.77;;;;;;;8.35;58.85;99838.13;10315301;28;20054;-71
2021/04/30 05:52:24;;;;;;;19.25;15.98;;;;;;;8.28;58.13;99827.13;10316895;28;20058;-72
2021/04/30 05:57:25;;;;;;;19.67;16.90;;;;;;;8.29;58.16;99834.13;10301263;28;20118;-70
2021/04/30 06:02:26;;;;;;;18.80;16.67;;;;;;;8.31;58.81;99829.53;10310588;28;20050;-71
2021/04/30 06:07:27;;;;;;;18.38;16.50;;;;;;;8.46;58.16;99838.16;10320488;28;20495;-71
2021/04/30 06:12:29;;;;;;;18.15;16.25;;;;;;;8.43;58.46;99833.06;10309451;28;20080;-71
2021/04/30 06:17:30;;;;;;;21.67;17.33;;;;;;;8.66;57.93;99839.25;10305867;28;20058;-71
2021/04/30 06:22:31;;;;;;;21.23;17.40;;;;;;;8.76;57.02;99830.56;10317687;28;20060;-72
2021/04/30 06:27:32;;;;;;;21.00;17.08;;;;;;;9.00;56.82;99819.78;10303982;28;20051;-70
2021/04/30 06:37:43;;;;;;;18.98;17.08;;;;;;;9.84;53.96;99808.47;10211654;28;20057;-67
2021/04/30 06:42:44;;;;;;;20.13;15.98;;;;;;;10.16;52.91;99796.88;10229553;28;20235;-69
2021/04/30 06:47:45;;;;;;;15.88;14.27;;;;;;;10.50;53.06;99815.28;10221301;28;20063;-69
2021/04/30 06:52:46;;;;;;;19.73;16.67;;;;;;;10.91;52.08;99803.66;10225950;28;20047;-68
2021/04/30 06:57:47;;;;;;;17.25;14.85;;;;;;;11.05;49.97;99814.88;10208689;28;20078;-68
2021/04/30 07:02:48;;;;;;;16.00;14.38;;;;;;;11.06;50.15;99814.75;10230321;28;20063;-68
2021/04/30 07:07:49;;;;;;;15.57;14.10;;;;;;;10.88;49.49;99798.59;10233032;28;20073;-68
2021/04/30 07:12:50;;;;;;;16.27;13.63;;;;;;;10.85;50.38;99812.16;10211986;28;20054;-69
2021/04/30 07:17:51;;;;;;;14.73;12.90;;;;;;;10.95;49.64;99810.38;10228177;28;20139;-68
2021/04/30 07:22:52;;;;;;;16.15;14.15;;;;;;;11.10;49.18;99808.16;10228153;28;20130;-68
2021/04/30 07:27:53;;;;;;;15.57;14.02;;;;;;;11.16;49.00;99788.13;10228032;28;20493;-69
2021/04/30 07:32:54;;;;;;;14.63;13.10;;;;;;;11.26;48.50;99804.97;10223393;28;20103;-69
2021/04/30 07:38:12;;;;;;;15.60;14.00;;;;;;;11.46;48.50;99808.47;10227796;28;20500;-71
2021/04/30 07:43:14;;;;;;;13.63;12.38;;;;;;;11.57;48.36;99820.81;10231303;28;20051;-71
2021/04/30 07:48:15;;;;;;;16.40;13.43;;;;;;;11.45;48.98;99811.28;10226529;28;20446;-67
2021/04/30 07:53:16;;;;;;;15.63;13.90;;;;;;;11.73;49.39;99808.75;10224449;28;25187;-68
2021/04/30 07:58:19;;;;;;;14.30;12.80;;;;;;;11.76;49.23;99819.16;10222074;28;20062;-67
2021/04/30 08:03:22;;;;;;;16.08;14.48;;;;;;;11.49;50.84;99813.53;10227284;28;20051;-67
2021/04/30 08:08:23;;;;;;;15.45;13.95;;;;;;;11.82;49.91;99829.25;10214910;29;20047;-67
2021/04/30 08:13:24;;;;;;;15.88;14.27;;;;;;;11.95;48.97;99803.16;10230350;28;20498;-68
2021/04/30 08:18:25;;;;;;;16.20;14.45;;;;;;;12.07;49.08;99800.28;10232652;28;20094;-68
2021/04/30 08:23:26;;;;;;;18.58;15.30;;;;;;;12.08;48.93;99826.00;10233312;28;20051;-68
2021/04/30 08:28:28;;;;;;;16.05;13.57;;;;;;;12.20;49.61;99828.38;10216971;28;20062;-70
2021/04/30 08:33:29;;;;;;;15.88;14.20;;;;;;;11.99;48.66;99841.03;10234030;28;20055;-68
2021/04/30 08:38:29;;;;;;;15.95;14.35;;;;;;;11.14;51.03;99838.06;10235266;28;20054;-68
2021/04/30 08:43:31;;;;;;;16.88;15.18;;;;;;;11.06;51.99;99843.22;10237654;28;20568;-69
2021/04/30 08:48:33;;;;;;;14.70;12.82;;;;;;;11.08;51.12;99841.25;10238101;28;20061;-69
2021/04/30 08:53:34;;;;;;;14.88;13.35;;;;;;;11.38;50.92;99834.13;10239283;28;20098;-68
2021/04/30 08:58:38;;;;;;;13.88;12.52;;;;;;;11.70;50.67;99825.03;10235281;28;20105;-68
2021/04/30 09:03:39;;;;;;;14.15;12.77;;;;;;;11.99;49.44;99835.69;10234338;28;20106;-69
2021/04/30 09:08:46;;;;;;;13.88;12.45;;;;;;;12.54;47.52;99835.81;10237136;28;20039;-68
2021/04/30 09:13:47;;;;;;;13.93;11.77;;;;;;;12.43;48.25;99817.34;10234066;28;20055;-68
2021/04/30 09:18:49;;;;;;;13.73;12.35;;;;;;;12.52;48.36;99831.63;10240541;28;20059;-66
2021/04/30 09:23:50;;;;;;;15.13;13.63;;;;;;;12.75;47.57;99821.41;10234964;28;20102;-67
2021/04/30 09:29:03;;;;;;;13.90;12.10;;;;;;;13.27;46.87;99831.53;10235119;28;20062;-69
2021/04/30 09:34:19;;;;;;;13.38;12.07;;;;;;;13.24;46.45;99842.50;10234637;28;20066;-68
2021/04/30 09:39:20;;;;;;;12.35;11.05;;;;;;;12.88;46.96;99823.72;10212773;28;20051;-66
2021/04/30 09:44:33;;;;;;;12.55;11.45;;;;;;;12.85;47.06;99843.56;10235003;28;20446;-68
2021/04/30 09:49:34;;;;;;;13.93;12.63;;;;;;;12.41;48.42;99840.66;10231376;28;20505;-67
2021/04/30 09:54:39;;;;;;;13.07;11.65;;;;;;;12.40;47.55;99840.78;10232982;28;20059;-68
2021/04/30 09:59:42;;;;;;;12.00;10.80;;;;;;;12.35;48.09;99838.56;10231068;28;20047;-68
2021/04/30 10:04:46;;;;;;;13.05;11.38;;;;;;;12.52;47.60;99831.63;10234991;28;20099;-68
2021/04/30 10:09:47;;;;;;;11.27;10.23;;;;;;;12.64;47.78;99818.91;10217084;28;20142;-68
2021/04/30 10:14:49;;;;;;;25.00;18.85;;;;;;;12.24;47.75;99806.72;10234911;28;20058;-67
2021/04/30 10:19:52;;;;;;;12.80;11.50;;;;;;;12.23;47.45;99795.19;10236614;28;20724;-68
2021/04/30 10:24:55;;;;;;;13.30;12.00;;;;;;;12.75;47.48;99799.22;10233084;28;20094;-68
2021/04/30 10:30:18;;;;;;;13.65;12.38;;;;;;;12.96;46.81;99796.28;10234630;28;20074;-68
2021/04/30 10:35:28;;;;;;;12.93;11.63;;;;;;;12.73;47.02;99797.53;10232651;28;20047;-67
2021/04/30 10:40:34;;;;;;;13.35;12.00;;;;;;;12.70;47.68;99784.47;10232617;28;20047;-68
2021/04/30 10:45:35;;;;;;;13.52;11.85;;;;;;;12.93;47.00;99788.56;10231871;28;20489;-68
2021/04/30 10:50:36;;;;;;;13.63;12.23;;;;;;;12.97;46.50;99787.25;10233046;28;20051;-68
2021/04/30 10:55:41;;;;;;;13.40;12.02;;;;;;;12.55;47.37;99780.63;10231905;28;20138;-68
2021/04/30 11:00:44;;;;;;;12.52;11.32;;;;;;;12.53;47.88;99780.75;10231388;28;20051;-68
2021/04/30 11:06:00;;;;;;;12.70;11.55;;;;;;;12.58;47.31;99785.66;10217014;28;20070;-68
2021/04/30 11:11:04;;;;;;;15.38;11.52;;;;;;;12.75;46.99;99760.00;10219779;28;20426;-68
2021/04/30 11:16:05;;;;;;;13.00;11.63;;;;;;;13.02;46.91;99759.09;10230440;28;20145;-68
2021/04/30 11:21:12;;;;;;;12.52;11.43;;;;;;;13.22;46.46;99761.63;10230983;28;20110;-68
2021/04/30 11:26:15;;;;;;;14.25;12.70;;;;;;;13.33;46.53;99760.56;10234322;28;20106;-68
2021/04/30 11:31:26;;;;;;;13.52;11.73;;;;;;;13.62;46.57;99760.34;10231149;28;20062;-68
2021/04/30 11:36:28;;;;;;;13.55;12.15;;;;;;;13.90;46.09;99747.69;10210153;28;20553;-68
2021/04/30 11:41:29;;;;;;;13.07;11.75;;;;;;;14.11;45.62;99758.00;10232744;28;20114;-68
2021/04/30 11:46:30;;;;;;;13.27;12.07;;;;;;;13.90;45.85;99754.84;10231179;28;20520;-68
2021/04/30 11:51:41;;;;;;;12.32;10.98;;;;;;;13.76;46.77;99762.44;10213778;28;20054;-68
2021/04/30 11:56:45;;;;;;;12.05;10.82;;;;;;;13.85;46.10;99771.38;10226334;28;20097;-68
2021/04/30 12:01:52;;;;;;;12.80;11.60;;;;;;;13.62;45.85;99749.66;10234741;28;20710;-69
2021/04/30 12:06:53;;;;;;;12.57;11.45;;;;;;;13.40;46.78;99767.00;10225797;28;20051;-69
2021/04/30 12:12:28;;;;;;;12.95;11.65;;;;;;;13.19;46.98;99769.97;10239330;28;20047;-68
2021/04/30 12:17:31;;;;;;;12.38;11.18;;;;;;;13.23;47.29;99782.84;10235972;28;20169;-69
2021/04/30 12:22:33;;;;;;;12.63;11.32;;;;;;;13.21;46.98;99773.31;10233649;29;20052;-70
2021/04/30 12:27:50;;;;;;;13.57;12.18;;;;;;;13.24;48.03;99773.00;10237480;28;20189;-67
2021/04/30 12:32:51;;;;;;;14.82;13.32;;;;;;;13.25;47.81;99754.13;10244876;28;20047;-68
2021/04/30 12:37:52;;;;;;;13.55;12.25;;;;;;;13.37;48.37;99760.13;10220469;28;20619;-68
2021/04/30 12:42:55;;;;;;;15.43;13.95;;;;;;;13.47;47.73;99753.88;10220068;28;20071;-68
2021/04/30 12:47:57;;;;;;;12.43;11.23;;;;;;;13.48;47.17;99763.56;10235297;28;20106;-66
2021/04/30 12:52:58;;;;;;;12.15;10.95;;;;;;;13.59;47.79;99782.06;10221923;28;20102;-68
2021/04/30 12:58:16;;;;;;;15.10;13.55;;;;;;;13.57;46.98;99786.69;10241248;23;20082;-70
2021/04/30 13:03:17;;;;;;;13.82;12.52;;;;;;;13.60;47.53;99786.38;10272197;28;20106;-70
2021/04/30 13:08:19;;;;;;;13.63;12.23;;;;;;;13.61;46.78;99790.75;10266106;28;20047;-69
2021/04/30 13:13:20;;;;;;;13.48;11.10;;;;;;;13.63;46.84;99767.38;10250659;28;20123;-70
2021/04/30 13:18:35;;;;;;;14.63;13.23;;;;;;;13.75;46.67;99768.81;10247280;28;20154;-71
2021/04/30 13:23:40;;;;;;;13.45;12.15;;;;;;;13.99;46.52;99767.31;10247048;28;20067;-70
2021/04/30 13:28:41;;;;;;;13.68;12.27;;;;;;;13.95;46.63;99760.56;10252006;28;20132;-70
2021/04/30 13:33:42;;;;;;;16.48;13.75;;;;;;;13.97;46.87;99761.25;10247501;28;20119;-69
2021/04/30 13:38:43;;;;;;;15.68;14.07;;;;;;;14.02;46.74;99761.63;10243130;28;20062;-70
2021/04/30 13:43:44;;;;;;;16.42;13.90;;;;;;;13.95;47.54;99765.94;10244152;28;20050;-70
2021/04/30 13:48:46;;;;;;;15.38;13.88;;;;;;;13.99;47.70;99755.75;10250079;28;20425;-70
2021/04/30 13:53:47;;;;;;;14.77;13.40;;;;;;;13.90;47.30;99752.16;10263156;28;20102;-70
2021/04/30 13:58:49;;;;;;;15.40;14.05;;;;;;;13.92;48.07;99750.19;10246903;28;20104;-69
2021/04/30 14:03:50;;;;;;;15.60;13.90;;;;;;;13.91;48.13;99754.69;10261270;28;20047;-70
2021/04/30 14:08:51;;;;;;;13.68;12.38;;;;;;;14.01;47.50;99749.25;10243686;28;20414;-70
2021/04/30 14:13:53;;;;;;;14.63;13.15;;;;;;;14.22;47.51;99756.06;10246775;28;20462;-68
2021/04/30 14:18:54;;;;;;;13.77;12.20;;;;;;;14.54;46.39;99731.25;10245406;28;20587;-72
2021/04/30 14:23:57;;;;;;;13.70;12.32;;;;;;;14.45;45.92;99730.38;10225222;28;20066;-71
2021/04/30 14:28:58;;;;;;;14.13;12.82;;;;;;;14.39;45.62;99733.69;10249203;28;20116;-70
2021/04/30 14:34:00;;;;;;;12.70;11.48;;;;;;;14.36;45.98;99731.34;10216992;28;20078;-72
2021/04/30 14:39:02;;;;;;;13.63;12.43;;;;;;;14.05;47.00;99737.22;10231881;28;20528;-74
2021/04/30 14:44:03;;;;;;;12.43;11.13;;;;;;;14.17;46.40;99732.41;10245928;28;20432;-71
2021/04/30 14:49:06;;;;;;;11.68;10.48;;;;;;;14.25;46.08;99739.66;10215313;28;20082;-71
2021/04/30 14:54:07;;;;;;;12.90;11.52;;;;;;;14.14;46.45;99730.91;10228477;28;20110;-72
2021/04/30 14:59:08;;;;;;;13.95;12.00;;;;;;;14.18;45.80;99733.28;10213622;28;20617;-72
2021/04/30 15:04:09;;;;;;;13.05;11.68;;;;;;;14.23;45.84;99733.63;10214575;28;20844;-71
2021/04/30 15:09:10;;;;;;;15.38;13.40;;;;;;;14.21;45.52;99738.31;10216235;28;20225;-69
2021/04/30 15:14:15;;;;;;;14.10;12.70;;;;;;;14.43;45.71;99742.25;10215025;28;20055;-71
2021/04/30 15:19:16;;;;;;;13.93;12.45;;;;;;;14.27;45.93;99724.28;10217677;28;20138;-71
2021/04/30 15:24:17;;;;;;;14.48;12.75;;;;;;;14.32;46.34;99711.25;10216123;28;20062;-70
2021/04/30 15:29:17;;;;;;;16.05;14.45;;;;;;;14.27;46.24;99726.97;10219626;28;20075;-70
2021/04/30 15:34:18;;;;;;;16.05;14.40;;;;;;;14.22;46.31;99718.59;10212812;28;20073;-68
2021/04/30 15:39:21;;;;;;;14.85;13.35;;;;;;;14.22;46.07;99713.22;10210485;28;20051;-69
2021/04/30 15:44:22;;;;;;;15.80;14.23;;;;;;;14.08;46.45;99711.97;10212681;28;20058;-69
2021/04/30 15:49:23;;;;;;;15.05;13.45;;;;;;;14.10;46.71;99716.16;10210071;28;20062;-70
2021/04/30 15:54:25;;;;;;;12.40;11.30;;;;;;;14.15;46.62;99716.50;10212426;28;20118;-70
2021/04/30 15:59:26;;;;;;;15.32;12.68;;;;;;;13.99;46.34;99711.09;10213131;28;20563;-70
2021/04/30 16:04:27;;;;;;;14.75;13.15;;;;;;;13.89;46.87;99707.69;10216778;28;20110;-69
2021/04/30 16:09:28;;;;;;;14.65;13.15;;;;;;;13.90;47.40;99720.06;10213317;28;20061;-70
2021/04/30 16:14:29;;;;;;;15.57;14.00;;;;;;;13.66;47.10;99729.63;10220226;28;20074;-70
2021/04/30 16:19:30;;;;;;;15.00;13.40;;;;;;;13.71;48.13;99726.47;10214826;28;20070;-70
2021/04/30 16:24:31;;;;;;;15.98;14.18;;;;;;;13.70;47.20;99722.94;10211341;28;20282;-70
2021/04/30 16:29:32;;;;;;;15.02;13.52;;;;;;;13.74;47.04;99727.00;10221078;28;20057;-70
2021/04/30 16:34:33;;;;;;;15.63;13.98;;;;;;;13.78;48.04;99711.47;10209422;28;20055;-69
2021/04/30 16:39:35;;;;;;;15.13;13.77;;;;;;;13.89;46.03;99707.69;10214758;28;20059;-70
2021/04/30 16:44:36;;;;;;;13.60;12.20;;;;;;;13.79;46.19;99713.97;10209112;28;20059;-70
2021/04/30 16:49:37;;;;;;;12.52;10.98;;;;;;;13.80;46.24;99704.13;10220776;28;20082;-70
2021/04/30 16:54:41;;;;;;;14.05;12.57;;;;;;;13.70;45.49;99695.38;10199167;28;20497;-69
2021/04/30 16:59:42;;;;;;;13.05;11.70;;;;;;;13.56;45.42;99708.31;10217520;28;20059;-70
2021/04/30 17:04:44;;;;;;;14.02;12.27;;;;;;;13.48;46.57;99704.75;10216213;28;20055;-70
2021/04/30 17:09:46;;;;;;;12.68;11.20;;;;;;;13.43;46.30;99703.38;10247292;28;20055;-70
2021/04/30 17:14:47;;;;;;;15.05;13.55;;;;;;;13.31;46.48;99683.19;10231761;28;20149;-70
2021/04/30 17:19:48;;;;;;;14.35;12.95;;;;;;;13.27;46.65;99692.53;10217342;28;20057;-70
2021/04/30 17:24:55;;;;;;;13.15;11.98;;;;;;;13.29;47.12;99697.72;10211565;28;20071;-69
2021/04/30 17:30:02;;;;;;;15.15;12.73;;;;;;;13.20;47.29;99707.50;10221453;28;20477;-70
2021/04/30 17:35:04;;;;;;;13.68;12.38;;;;;;;13.21;47.21;99726.06;10229748;28;20107;-70
2021/04/30 17:40:12;;;;;;;14.38;12.90;;;;;;;13.15;47.94;99723.16;10209303;28;20102;-70
2021/04/30 17:45:14;;;;;;;14.60;12.75;;;;;;;13.21;48.15;99717.19;10229814;28;20106;-70
2021/04/30 17:50:18;;;;;;;14.00;12.52;;;;;;;13.07;47.49;99714.06;10214614;28;20055;-69
2021/04/30 17:55:24;;;;;;;14.85;13.27;;;;;;;13.00;47.41;99729.03;10221057;28;20039;-70
2021/04/30 18:00:28;;;;;;;12.60;11.40;;;;;;;12.95;47.97;99744.66;10211607;28;20601;-71
2021/04/30 18:05:32;;;;;;;17.88;13.38;;;;;;;12.77;47.38;99738.47;10226086;28;20130;-71
2021/04/30 18:10:33;;;;;;;17.63;13.18;;;;;;;12.53;47.73;99731.84;10218848;28;20051;-72
2021/04/30 18:15:35;;;;;;;13.52;11.57;;;;;;;12.47;48.04;99735.97;10236370;28;20062;-72
2021/04/30 18:20:37;;;;;;;13.80;11.27;;;;;;;12.51;48.18;99760.53;10238913;28;20059;-70
2021/04/30 18:25:38;;;;;;;12.85;11.52;;;;;;;12.44;47.17;99756.78;10214967;28;20104;-70
2021/04/30 18:30:42;;;;;;;12.82;10.77;;;;;;;12.29;46.57;99767.91;10211968;28;20203;-69
2021/04/30 18:35:44;;;;;;;12.45;11.25;;;;;;;12.06;47.18;99772.78;10220628;28;20209;-69
2021/04/30 18:40:46;;;;;;;12.90;10.55;;;;;;;12.00;46.56;99784.88;10223440;28;20134;-69
2021/04/30 18:46:05;;;;;;;11.60;10.40;;;;;;;11.84;46.10;99785.47;10218821;28;20126;-70
2021/04/30 18:51:08;;;;;;;11.73;10.00;;;;;;;11.70;44.79;99798.38;10217195;28;20133;-71
2021/04/30 18:56:09;;;;;;;11.77;10.55;;;;;;;11.67;45.01;99808.34;10223747;28;20091;-71
2021/04/30 19:01:13;;;;;;;12.48;11.20;;;;;;;11.31;45.14;99805.38;10202667;28;20058;-73
2021/04/30 19:06:14;;;;;;;12.23;9.73;;;;;;;11.37;46.03;99813.81;10251112;23;20141;-68
2021/04/30 19:11:15;;;;;;;13.57;10.65;;;;;;;11.32;45.46;99817.75;10263591;28;20062;-71
2021/04/30 19:16:16;;;;;;;12.05;10.85;;;;;;;11.13;46.02;99810.56;10253178;28;21312;-70
2021/04/30 19:21:17;;;;;;;10.73;9.75;;;;;;;11.16;45.89;99811.28;10238324;28;20057;-68
2021/04/30 19:26:19;;;;;;;10.30;9.30;;;;;;;11.19;45.81;99817.16;10248375;28;20059;-70
2021/04/30 19:31:20;;;;;;;11.52;10.02;;;;;;;11.23;45.64;99815.91;10246844;28;20178;-68
2021/04/30 19:36:21;;;;;;;12.15;9.98;;;;;;;11.17;46.06;99811.13;10235931;28;20175;-68
2021/04/30 19:41:22;;;;;;;10.68;9.57;;;;;;;11.16;45.51;99837.91;10237782;28;20050;-69
2021/04/30 19:46:23;;;;;;;11.35;9.98;;;;;;;11.07;46.09;99827.09;10241326;28;20050;-68
2021/04/30 19:51:24;;;;;;;10.23;9.23;;;;;;;10.95;45.48;99831.69;10252385;28;20050;-69
2021/04/30 19:56:25;;;;;;;12.07;9.93;;;;;;;11.04;45.75;99830.03;10239039;28;20117;-69
2021/04/30 20:01:26;;;;;;;11.27;9.52;;;;;;;11.05;46.19;99838.84;10236662;28;20046;-68
2021/04/30 20:06:27;;;;;;;10.68;9.40;;;;;;;11.01;45.29;99854.28;10241705;28;21488;-67
2021/04/30 20:11:28;;;;;;;10.98;9.38;;;;;;;11.12;46.40;99863.97;10241666;28;20082;-69
2021/04/30 20:16:29;;;;;;;10.98;9.52;;;;;;;10.94;45.54;99851.31;10237492;28;20069;-67
2021/04/30 20:21:30;;;;;;;10.15;9.15;;;;;;;10.87;45.75;99865.28;10233278;28;20058;-71
2021/04/30 20:26:32;;;;;;;10.35;8.70;;;;;;;10.75;45.76;99873.38;10267231;28;20733;-69
2021/04/30 20:31:33;;;;;;;10.60;9.50;;;;;;;10.90;46.79;99867.69;10273426;28;20087;-66
2021/04/30 20:36:34;;;;;;;11.95;9.80;;;;;;;10.98;46.04;99877.69;10271635;28;20122;-67
2021/04/30 20:41:40;;;;;;;12.10;9.90;;;;;;;10.69;46.82;99873.06;10268681;28;20050;-69
2021/04/30 20:46:42;;;;;;;10.27;9.35;;;;;;;10.75;47.22;99857.41;10267701;28;20113;-67
2021/04/30 20:51:43;;;;;;;11.40;9.75;;;;;;;10.80;47.11;99865.00;10273003;28;20046;-69
2021/04/30 20:56:44;;;;;;;13.65;10.65;;;;;;;10.76;47.69;99852.94;10276145;28;20050;-68
2021/04/30 21:01:45;;;;;;;11.43;10.32;;;;;;;10.79;48.02;99863.31;10274240;28;20501;-69
2021/04/30 21:06:46;;;;;;;11.80;10.60;;;;;;;10.69;47.66;99833.13;10275532;28;20081;-68
2021/04/30 21:11:53;;;;;;;11.48;10.38;;;;;;;10.82;46.82;99856.88;10274618;28;20093;-68
2021/04/30 21:16:54;;;;;;;12.02;10.73;;;;;;;10.66;46.55;99844.06;10279322;28;20047;-69
2021/04/30 21:21:56;;;;;;;11.85;10.65;;;;;;;10.74;46.43;99868.19;10278383;28;20047;-69
2021/04/30 21:27:01;;;;;;;11.35;9.98;;;;;;;10.71;46.38;99874.63;10277211;28;20059;-67
2021/04/30 21:32:05;;;;;;;11.52;10.30;;;;;;;10.69;46.17;99876.59;10270102;28;20059;-69
2021/04/30 21:37:07;;;;;;;10.80;9.57;;;;;;;10.51;46.70;99876.38;10271998;28;20047;-69
2021/04/30 21:42:09;;;;;;;14.48;10.63;;;;;;;10.61;47.61;99892.38;10274020;28;20043;-68
2021/04/30 21:47:10;;;;;;;11.52;10.43;;;;;;;10.58;47.23;99908.59;10291578;28;20070;-68
2021/04/30 21:52:12;;;;;;;12.50;11.20;;;;;;;10.60;47.80;99918.16;10271842;28;20146;-69
2021/04/30 21:57:13;;;;;;;14.10;11.45;;;;;;;10.44;48.12;99907.97;10269856;28;20082;-69
2021/04/30 22:02:14;;;;;;;14.27;12.43;;;;;;;10.32;48.56;99911.66;10273016;28;20050;-72
2021/04/30 22:07:15;;;;;;;13.25;11.85;;;;;;;10.30;49.19;99921.59;10274142;28;20051;-67
2021/04/30 22:12:17;;;;;;;13.07;11.40;;;;;;;10.48;49.65;99929.00;10273670;28;20476;-69
2021/04/30 22:17:18;;;;;;;12.75;11.48;;;;;;;10.54;49.73;99924.00;10271419;28;20054;-68
2021/04/30 22:22:19;;;;;;;12.55;11.25;;;;;;;10.45;49.38;99924.81;10278731;28;20501;-68
2021/04/30 22:27:20;;;;;;;14.50;12.90;;;;;;;10.39;50.04;99910.19;10273841;28;20054;-67
2021/04/30 22:32:21;;;;;;;14.40;12.90;;;;;;;10.35;50.75;99919.41;10279665;28;20053;-68
2021/04/30 22:37:22;;;;;;;14.18;12.77;;;;;;;10.24;50.52;99924.78;10316952;28;20050;-68
2021/04/30 22:42:23;;;;;;;14.90;13.40;;;;;;;10.18;51.16;99939.41;10288023;28;20058;-68
2021/04/30 22:47:24;;;;;;;15.60;14.10;;;;;;;10.09;51.62;99914.44;10270985;28;20130;-69
2021/04/30 22:52:25;;;;;;;14.65;12.93;;;;;;;10.08;51.46;99917.22;10269051;28;20608;-68
2021/04/30 22:57:26;;;;;;;14.32;12.98;;;;;;;10.05;52.09;99926.28;10268575;28;20154;-68
2021/04/30 23:02:27;;;;;;;16.33;14.73;;;;;;;10.12;52.15;99928.44;10271332;28;20085;-68